sensor_id;sensor_type;location;lat;lon;timestamp;P1;durP1;ratioP1;P2;durP2;ratioP2
22965;SDS011;11649;48.090;9.754;2023-07-30T00:00:54;4.10;;;3.28;;
22965;SDS011;11649;48.090;9.754;2023-07-30T00:03:30;3.60;;;3.25;;
22965;SDS011;11649;48.090;9.754;2023-07-30T00:05:57;6.82;;;3.45;;
22965;SDS011;11649;48.090;9.754;2023-07-30T00:08:26;5.65;;;3.17;;
22965;SDS011;11649;48.090;9.754;2023-07-30T00:10:59;4.43;;;3.38;;
22965;SDS011;11649;48.090;9.754;2023-07-30T00:13:36;5.88;;;3.33;;
22965;SDS011;11649;48.090;9.754;2023-07-30T00:16:14;5.55;;;3.78;;
22965;SDS011;11649;48.090;9.754;2023-07-30T00:23:02;4.63;;;3.47;;
22965;SDS011;11649;48.090;9.754;2023-07-30T00:25:47;6.03;;;3.50;;
22965;SDS011;11649;48.090;9.754;2023-07-30T00:31:04;4.93;;;3.67;;
22965;SDS011;11649;48.090;9.754;2023-07-30T00:33:45;5.25;;;3.53;;
22965;SDS011;11649;48.090;9.754;2023-07-30T00:36:12;5.00;;;3.72;;
22965;SDS011;11649;48.090;9.754;2023-07-30T00:38:41;5.45;;;3.60;;
22965;SDS011;11649;48.090;9.754;2023-07-30T00:44:47;4.05;;;3.65;;
22965;SDS011;11649;48.090;9.754;2023-07-30T00:47:31;7.20;;;3.95;;
22965;SDS011;11649;48.090;9.754;2023-07-30T00:54:58;4.63;;;3.92;;
22965;SDS011;11649;48.090;9.754;2023-07-30T00:58:09;5.30;;;3.80;;
22965;SDS011;11649;48.090;9.754;2023-07-30T01:01:22;5.05;;;3.70;;
22965;SDS011;11649;48.090;9.754;2023-07-30T01:04:27;5.00;;;4.20;;
22965;SDS011;11649;48.090;9.754;2023-07-30T01:09:43;6.68;;;4.30;;
22965;SDS011;11649;48.090;9.754;2023-07-30T01:12:29;5.25;;;4.28;;
22965;SDS011;11649;48.090;9.754;2023-07-30T01:14:57;5.45;;;3.95;;
22965;SDS011;11649;48.090;9.754;2023-07-30T01:17:25;6.03;;;4.35;;
22965;SDS011;11649;48.090;9.754;2023-07-30T01:19:52;5.57;;;4.22;;
22965;SDS011;11649;48.090;9.754;2023-07-30T01:22:32;5.53;;;4.10;;
22965;SDS011;11649;48.090;9.754;2023-07-30T01:24:59;5.18;;;4.20;;
22965;SDS011;11649;48.090;9.754;2023-07-30T01:27:29;4.80;;;4.05;;
22965;SDS011;11649;48.090;9.754;2023-07-30T01:32:25;4.40;;;4.00;;
22965;SDS011;11649;48.090;9.754;2023-07-30T01:34:58;5.88;;;4.95;;
22965;SDS011;11649;48.090;9.754;2023-07-30T01:37:30;6.28;;;4.25;;
22965;SDS011;11649;48.090;9.754;2023-07-30T01:39:59;7.57;;;4.18;;
22965;SDS011;11649;48.090;9.754;2023-07-30T01:42:28;4.40;;;3.60;;
22965;SDS011;11649;48.090;9.754;2023-07-30T01:44:58;4.40;;;3.70;;
22965;SDS011;11649;48.090;9.754;2023-07-30T01:47:31;4.20;;;3.80;;
22965;SDS011;11649;48.090;9.754;2023-07-30T01:50:24;5.30;;;3.90;;
22965;SDS011;11649;48.090;9.754;2023-07-30T01:52:59;4.97;;;3.70;;
22965;SDS011;11649;48.090;9.754;2023-07-30T01:55:26;4.13;;;3.53;;
22965;SDS011;11649;48.090;9.754;2023-07-30T01:57:53;4.88;;;3.67;;
22965;SDS011;11649;48.090;9.754;2023-07-30T02:00:24;4.18;;;3.60;;
22965;SDS011;11649;48.090;9.754;2023-07-30T02:02:51;5.43;;;3.70;;
22965;SDS011;11649;48.090;9.754;2023-07-30T02:05:18;7.20;;;3.67;;
22965;SDS011;11649;48.090;9.754;2023-07-30T02:07:48;4.65;;;3.75;;
22965;SDS011;11649;48.090;9.754;2023-07-30T02:10:15;4.95;;;3.50;;
22965;SDS011;11649;48.090;9.754;2023-07-30T02:12:42;5.47;;;3.17;;
22965;SDS011;11649;48.090;9.754;2023-07-30T02:15:12;3.88;;;3.47;;
22965;SDS011;11649;48.090;9.754;2023-07-30T02:17:39;5.07;;;3.50;;
22965;SDS011;11649;48.090;9.754;2023-07-30T02:20:06;6.03;;;4.00;;
22965;SDS011;11649;48.090;9.754;2023-07-30T02:22:35;5.00;;;3.75;;
22965;SDS011;11649;48.090;9.754;2023-07-30T02:27:46;5.60;;;3.70;;
22965;SDS011;11649;48.090;9.754;2023-07-30T02:30:16;6.10;;;3.50;;
22965;SDS011;11649;48.090;9.754;2023-07-30T02:32:55;4.03;;;3.40;;
22965;SDS011;11649;48.090;9.754;2023-07-30T02:35:32;5.22;;;3.60;;
22965;SDS011;11649;48.090;9.754;2023-07-30T02:38:02;5.60;;;3.42;;
22965;SDS011;11649;48.090;9.754;2023-07-30T02:40:31;4.85;;;3.75;;
22965;SDS011;11649;48.090;9.754;2023-07-30T02:42:58;4.38;;;3.42;;
22965;SDS011;11649;48.090;9.754;2023-07-30T02:45:25;4.13;;;3.47;;
22965;SDS011;11649;48.090;9.754;2023-07-30T02:47:52;4.40;;;3.50;;
22965;SDS011;11649;48.090;9.754;2023-07-30T02:50:19;4.55;;;3.35;;
22965;SDS011;11649;48.090;9.754;2023-07-30T02:52:46;5.10;;;3.65;;
22965;SDS011;11649;48.090;9.754;2023-07-30T02:55:14;5.03;;;3.67;;
22965;SDS011;11649;48.090;9.754;2023-07-30T02:57:42;5.20;;;3.55;;
22965;SDS011;11649;48.090;9.754;2023-07-30T03:00:09;5.18;;;3.53;;
22965;SDS011;11649;48.090;9.754;2023-07-30T03:02:37;7.18;;;3.72;;
22965;SDS011;11649;48.090;9.754;2023-07-30T03:05:04;6.07;;;3.97;;
22965;SDS011;11649;48.090;9.754;2023-07-30T03:07:31;5.85;;;3.83;;
22965;SDS011;11649;48.090;9.754;2023-07-30T03:09:58;3.92;;;3.42;;
22965;SDS011;11649;48.090;9.754;2023-07-30T03:12:25;4.57;;;3.83;;
22965;SDS011;11649;48.090;9.754;2023-07-30T03:14:52;4.72;;;3.97;;
22965;SDS011;11649;48.090;9.754;2023-07-30T03:17:19;5.15;;;3.95;;
22965;SDS011;11649;48.090;9.754;2023-07-30T03:22:35;4.35;;;3.50;;
22965;SDS011;11649;48.090;9.754;2023-07-30T03:25:16;5.43;;;3.70;;
22965;SDS011;11649;48.090;9.754;2023-07-30T03:27:43;4.78;;;3.85;;
22965;SDS011;11649;48.090;9.754;2023-07-30T03:30:13;5.43;;;3.85;;
22965;SDS011;11649;48.090;9.754;2023-07-30T03:35:14;4.55;;;3.67;;
22965;SDS011;11649;48.090;9.754;2023-07-30T03:37:52;6.63;;;4.30;;
22965;SDS011;11649;48.090;9.754;2023-07-30T03:42:47;4.90;;;3.90;;
22965;SDS011;11649;48.090;9.754;2023-07-30T03:45:15;5.70;;;4.18;;
22965;SDS011;11649;48.090;9.754;2023-07-30T03:47:42;6.32;;;4.10;;
22965;SDS011;11649;48.090;9.754;2023-07-30T03:50:09;4.90;;;4.40;;
22965;SDS011;11649;48.090;9.754;2023-07-30T03:56:01;6.57;;;4.03;;
22965;SDS011;11649;48.090;9.754;2023-07-30T03:58:30;5.00;;;4.13;;
22965;SDS011;11649;48.090;9.754;2023-07-30T04:00:57;4.78;;;4.00;;
22965;SDS011;11649;48.090;9.754;2023-07-30T04:03:30;8.65;;;4.50;;
22965;SDS011;11649;48.090;9.754;2023-07-30T04:06:00;5.47;;;3.95;;
22965;SDS011;11649;48.090;9.754;2023-07-30T04:08:48;5.25;;;4.18;;
22965;SDS011;11649;48.090;9.754;2023-07-30T04:11:15;6.40;;;4.15;;
22965;SDS011;11649;48.090;9.754;2023-07-30T04:13:51;7.88;;;4.28;;
22965;SDS011;11649;48.090;9.754;2023-07-30T04:16:17;6.05;;;4.03;;
22965;SDS011;11649;48.090;9.754;2023-07-30T04:18:54;4.70;;;4.05;;
22965;SDS011;11649;48.090;9.754;2023-07-30T04:21:21;4.68;;;3.95;;
22965;SDS011;11649;48.090;9.754;2023-07-30T04:23:47;5.78;;;4.20;;
22965;SDS011;11649;48.090;9.754;2023-07-30T04:26:23;4.40;;;3.70;;
22965;SDS011;11649;48.090;9.754;2023-07-30T04:28:54;4.88;;;3.85;;
22965;SDS011;11649;48.090;9.754;2023-07-30T04:31:21;6.03;;;4.18;;
22965;SDS011;11649;48.090;9.754;2023-07-30T04:33:47;4.00;;;3.60;;
22965;SDS011;11649;48.090;9.754;2023-07-30T04:36:14;5.35;;;3.70;;
22965;SDS011;11649;48.090;9.754;2023-07-30T04:38:41;7.00;;;3.85;;
22965;SDS011;11649;48.090;9.754;2023-07-30T04:41:08;4.53;;;4.07;;
22965;SDS011;11649;48.090;9.754;2023-07-30T04:43:35;4.90;;;4.05;;
22965;SDS011;11649;48.090;9.754;2023-07-30T04:46:02;4.07;;;3.65;;
22965;SDS011;11649;48.090;9.754;2023-07-30T04:48:30;5.32;;;4.15;;
22965;SDS011;11649;48.090;9.754;2023-07-30T04:50:57;6.03;;;4.38;;
22965;SDS011;11649;48.090;9.754;2023-07-30T04:53:24;5.78;;;4.20;;
22965;SDS011;11649;48.090;9.754;2023-07-30T04:55:57;4.60;;;3.85;;
22965;SDS011;11649;48.090;9.754;2023-07-30T04:58:25;5.63;;;4.27;;
22965;SDS011;11649;48.090;9.754;2023-07-30T05:00:52;5.07;;;4.25;;
22965;SDS011;11649;48.090;9.754;2023-07-30T05:03:33;5.13;;;3.80;;
22965;SDS011;11649;48.090;9.754;2023-07-30T05:06:00;4.60;;;3.75;;
22965;SDS011;11649;48.090;9.754;2023-07-30T05:08:27;5.68;;;3.92;;
22965;SDS011;11649;48.090;9.754;2023-07-30T05:10:54;5.47;;;4.20;;
22965;SDS011;11649;48.090;9.754;2023-07-30T05:13:31;5.30;;;3.75;;
22965;SDS011;11649;48.090;9.754;2023-07-30T05:15:58;5.45;;;3.72;;
22965;SDS011;11649;48.090;9.754;2023-07-30T05:18:25;7.68;;;3.72;;
22965;SDS011;11649;48.090;9.754;2023-07-30T05:20:51;4.70;;;4.05;;
22965;SDS011;11649;48.090;9.754;2023-07-30T05:23:19;7.93;;;3.90;;
22965;SDS011;11649;48.090;9.754;2023-07-30T05:25:46;5.85;;;3.83;;
22965;SDS011;11649;48.090;9.754;2023-07-30T05:28:16;4.30;;;3.90;;
22965;SDS011;11649;48.090;9.754;2023-07-30T05:30:43;4.95;;;4.00;;
22965;SDS011;11649;48.090;9.754;2023-07-30T05:33:10;4.63;;;3.90;;
22965;SDS011;11649;48.090;9.754;2023-07-30T05:35:38;4.65;;;4.10;;
22965;SDS011;11649;48.090;9.754;2023-07-30T05:38:04;5.43;;;4.30;;
22965;SDS011;11649;48.090;9.754;2023-07-30T05:40:35;4.88;;;4.07;;
22965;SDS011;11649;48.090;9.754;2023-07-30T05:43:05;6.35;;;3.70;;
22965;SDS011;11649;48.090;9.754;2023-07-30T05:45:33;4.22;;;3.70;;
22965;SDS011;11649;48.090;9.754;2023-07-30T05:48:00;6.05;;;3.72;;
22965;SDS011;11649;48.090;9.754;2023-07-30T05:50:27;5.20;;;3.88;;
22965;SDS011;11649;48.090;9.754;2023-07-30T05:52:54;8.60;;;3.70;;
22965;SDS011;11649;48.090;9.754;2023-07-30T05:55:21;3.70;;;3.15;;
22965;SDS011;11649;48.090;9.754;2023-07-30T05:57:48;3.50;;;3.20;;
22965;SDS011;11649;48.090;9.754;2023-07-30T06:00:14;6.20;;;3.28;;
22965;SDS011;11649;48.090;9.754;2023-07-30T06:02:41;4.13;;;3.30;;
22965;SDS011;11649;48.090;9.754;2023-07-30T06:05:08;3.60;;;3.08;;
22965;SDS011;11649;48.090;9.754;2023-07-30T06:07:35;3.42;;;3.13;;
22965;SDS011;11649;48.090;9.754;2023-07-30T06:10:02;4.28;;;3.20;;
22965;SDS011;11649;48.090;9.754;2023-07-30T06:12:29;4.60;;;3.20;;
22965;SDS011;11649;48.090;9.754;2023-07-30T06:14:55;4.78;;;3.40;;
22965;SDS011;11649;48.090;9.754;2023-07-30T06:17:22;4.90;;;3.55;;
22965;SDS011;11649;48.090;9.754;2023-07-30T06:19:49;4.05;;;3.15;;
22965;SDS011;11649;48.090;9.754;2023-07-30T06:22:16;4.57;;;3.45;;
22965;SDS011;11649;48.090;9.754;2023-07-30T06:24:43;4.70;;;3.25;;
22965;SDS011;11649;48.090;9.754;2023-07-30T06:27:10;3.40;;;3.10;;
22965;SDS011;11649;48.090;9.754;2023-07-30T06:29:38;4.28;;;3.45;;
22965;SDS011;11649;48.090;9.754;2023-07-30T06:32:05;3.55;;;3.10;;
22965;SDS011;11649;48.090;9.754;2023-07-30T06:34:32;3.58;;;3.13;;
22965;SDS011;11649;48.090;9.754;2023-07-30T06:36:59;4.65;;;3.05;;
22965;SDS011;11649;48.090;9.754;2023-07-30T06:39:26;3.75;;;3.15;;
22965;SDS011;11649;48.090;9.754;2023-07-30T06:41:53;4.57;;;2.92;;
22965;SDS011;11649;48.090;9.754;2023-07-30T06:44:19;5.03;;;2.70;;
22965;SDS011;11649;48.090;9.754;2023-07-30T06:46:46;3.00;;;2.53;;
22965;SDS011;11649;48.090;9.754;2023-07-30T06:49:13;4.22;;;2.90;;
22965;SDS011;11649;48.090;9.754;2023-07-30T06:51:40;2.88;;;2.45;;
22965;SDS011;11649;48.090;9.754;2023-07-30T06:54:07;4.03;;;2.90;;
22965;SDS011;11649;48.090;9.754;2023-07-30T06:56:34;4.03;;;2.60;;
22965;SDS011;11649;48.090;9.754;2023-07-30T06:59:01;2.58;;;2.38;;
22965;SDS011;11649;48.090;9.754;2023-07-30T07:01:28;3.80;;;2.45;;
22965;SDS011;11649;48.090;9.754;2023-07-30T07:03:55;2.80;;;2.08;;
22965;SDS011;11649;48.090;9.754;2023-07-30T07:06:22;4.03;;;2.10;;
22965;SDS011;11649;48.090;9.754;2023-07-30T07:08:49;2.50;;;1.98;;
22965;SDS011;11649;48.090;9.754;2023-07-30T07:11:15;2.10;;;1.60;;
22965;SDS011;11649;48.090;9.754;2023-07-30T07:13:42;3.67;;;1.90;;
22965;SDS011;11649;48.090;9.754;2023-07-30T07:16:09;1.95;;;1.80;;
22965;SDS011;11649;48.090;9.754;2023-07-30T07:18:36;2.20;;;2.00;;
22965;SDS011;11649;48.090;9.754;2023-07-30T07:21:02;2.75;;;1.88;;
22965;SDS011;11649;48.090;9.754;2023-07-30T07:23:29;1.70;;;1.60;;
22965;SDS011;11649;48.090;9.754;2023-07-30T07:25:56;1.77;;;1.60;;
22965;SDS011;11649;48.090;9.754;2023-07-30T07:28:23;1.85;;;1.65;;
22965;SDS011;11649;48.090;9.754;2023-07-30T07:30:49;3.78;;;1.80;;
22965;SDS011;11649;48.090;9.754;2023-07-30T07:33:16;4.45;;;2.10;;
22965;SDS011;11649;48.090;9.754;2023-07-30T07:38:29;1.60;;;1.50;;
22965;SDS011;11649;48.090;9.754;2023-07-30T07:40:56;1.92;;;1.70;;
22965;SDS011;11649;48.090;9.754;2023-07-30T07:43:22;1.70;;;1.60;;
22965;SDS011;11649;48.090;9.754;2023-07-30T07:45:49;2.22;;;1.80;;
22965;SDS011;11649;48.090;9.754;2023-07-30T07:48:16;2.20;;;1.65;;
22965;SDS011;11649;48.090;9.754;2023-07-30T07:50:43;2.20;;;1.70;;
22965;SDS011;11649;48.090;9.754;2023-07-30T07:53:11;4.53;;;1.63;;
22965;SDS011;11649;48.090;9.754;2023-07-30T07:55:37;2.17;;;1.80;;
22965;SDS011;11649;48.090;9.754;2023-07-30T07:58:04;1.83;;;1.60;;
22965;SDS011;11649;48.090;9.754;2023-07-30T08:00:31;1.90;;;1.70;;
22965;SDS011;11649;48.090;9.754;2023-07-30T08:02:58;2.75;;;1.52;;
22965;SDS011;11649;48.090;9.754;2023-07-30T08:05:24;1.63;;;1.42;;
22965;SDS011;11649;48.090;9.754;2023-07-30T08:07:52;2.72;;;1.60;;
22965;SDS011;11649;48.090;9.754;2023-07-30T08:10:19;2.22;;;1.80;;
22965;SDS011;11649;48.090;9.754;2023-07-30T08:12:46;1.65;;;1.55;;
22965;SDS011;11649;48.090;9.754;2023-07-30T08:15:15;3.55;;;1.90;;
22965;SDS011;11649;48.090;9.754;2023-07-30T08:17:41;1.63;;;1.52;;
22965;SDS011;11649;48.090;9.754;2023-07-30T08:20:08;2.10;;;1.45;;
22965;SDS011;11649;48.090;9.754;2023-07-30T08:25:40;1.63;;;1.50;;
22965;SDS011;11649;48.090;9.754;2023-07-30T08:28:07;1.70;;;1.60;;
22965;SDS011;11649;48.090;9.754;2023-07-30T08:30:34;1.88;;;1.60;;
22965;SDS011;11649;48.090;9.754;2023-07-30T08:33:01;2.75;;;1.60;;
22965;SDS011;11649;48.090;9.754;2023-07-30T08:35:28;2.67;;;1.73;;
22965;SDS011;11649;48.090;9.754;2023-07-30T08:37:55;4.80;;;1.60;;
22965;SDS011;11649;48.090;9.754;2023-07-30T08:40:22;1.90;;;1.50;;
22965;SDS011;11649;48.090;9.754;2023-07-30T08:42:51;1.70;;;1.40;;
22965;SDS011;11649;48.090;9.754;2023-07-30T08:45:19;2.03;;;1.63;;
22965;SDS011;11649;48.090;9.754;2023-07-30T08:47:46;3.13;;;1.42;;
22965;SDS011;11649;48.090;9.754;2023-07-30T08:50:14;1.60;;;1.50;;
22965;SDS011;11649;48.090;9.754;2023-07-30T08:52:41;2.50;;;1.80;;
22965;SDS011;11649;48.090;9.754;2023-07-30T08:55:08;1.85;;;1.60;;
22965;SDS011;11649;48.090;9.754;2023-07-30T08:57:36;1.92;;;1.60;;
22965;SDS011;11649;48.090;9.754;2023-07-30T09:00:05;3.03;;;1.40;;
22965;SDS011;11649;48.090;9.754;2023-07-30T09:02:37;1.65;;;1.55;;
22965;SDS011;11649;48.090;9.754;2023-07-30T09:05:14;1.70;;;1.45;;
22965;SDS011;11649;48.090;9.754;2023-07-30T09:07:41;1.70;;;1.60;;
22965;SDS011;11649;48.090;9.754;2023-07-30T09:10:08;1.60;;;1.30;;
22965;SDS011;11649;48.090;9.754;2023-07-30T09:12:35;1.80;;;1.42;;
22965;SDS011;11649;48.090;9.754;2023-07-30T09:15:03;1.85;;;1.40;;
22965;SDS011;11649;48.090;9.754;2023-07-30T09:17:33;1.40;;;1.30;;
22965;SDS011;11649;48.090;9.754;2023-07-30T09:20:04;1.80;;;1.38;;
22965;SDS011;11649;48.090;9.754;2023-07-30T09:22:33;2.28;;;1.40;;
22965;SDS011;11649;48.090;9.754;2023-07-30T09:25:05;2.20;;;1.20;;
22965;SDS011;11649;48.090;9.754;2023-07-30T09:27:32;1.92;;;1.40;;
22965;SDS011;11649;48.090;9.754;2023-07-30T09:30:00;1.65;;;1.27;;
22965;SDS011;11649;48.090;9.754;2023-07-30T09:32:29;1.88;;;1.40;;
22965;SDS011;11649;48.090;9.754;2023-07-30T09:35:04;2.03;;;1.40;;
22965;SDS011;11649;48.090;9.754;2023-07-30T09:37:39;1.95;;;1.38;;
22965;SDS011;11649;48.090;9.754;2023-07-30T09:40:10;3.30;;;1.40;;
22965;SDS011;11649;48.090;9.754;2023-07-30T09:42:42;3.35;;;1.60;;
22965;SDS011;11649;48.090;9.754;2023-07-30T09:48:14;1.33;;;1.23;;
22965;SDS011;11649;48.090;9.754;2023-07-30T09:50:42;3.92;;;1.40;;
22965;SDS011;11649;48.090;9.754;2023-07-30T09:53:09;2.53;;;1.48;;
22965;SDS011;11649;48.090;9.754;2023-07-30T09:55:37;2.13;;;1.45;;
22965;SDS011;11649;48.090;9.754;2023-07-30T09:58:04;2.30;;;1.48;;
22965;SDS011;11649;48.090;9.754;2023-07-30T10:00:32;1.55;;;1.40;;
22965;SDS011;11649;48.090;9.754;2023-07-30T10:02:58;3.38;;;1.40;;
22965;SDS011;11649;48.090;9.754;2023-07-30T10:05:29;1.83;;;1.45;;
22965;SDS011;11649;48.090;9.754;2023-07-30T10:08:19;2.55;;;1.40;;
22965;SDS011;11649;48.090;9.754;2023-07-30T10:10:49;2.00;;;1.40;;
22965;SDS011;11649;48.090;9.754;2023-07-30T10:13:19;3.28;;;1.50;;
22965;SDS011;11649;48.090;9.754;2023-07-30T10:15:47;1.75;;;1.60;;
22965;SDS011;11649;48.090;9.754;2023-07-30T10:18:14;5.25;;;1.60;;
22965;SDS011;11649;48.090;9.754;2023-07-30T10:20:41;1.50;;;1.40;;
22965;SDS011;11649;48.090;9.754;2023-07-30T10:23:19;2.45;;;1.50;;
22965;SDS011;11649;48.090;9.754;2023-07-30T10:25:49;1.52;;;1.40;;
22965;SDS011;11649;48.090;9.754;2023-07-30T10:31:02;1.63;;;1.40;;
22965;SDS011;11649;48.090;9.754;2023-07-30T10:36:30;4.07;;;1.55;;
22965;SDS011;11649;48.090;9.754;2023-07-30T10:39:12;2.83;;;1.80;;
22965;SDS011;11649;48.090;9.754;2023-07-30T10:41:43;4.00;;;1.48;;
22965;SDS011;11649;48.090;9.754;2023-07-30T10:44:17;2.22;;;1.60;;
22965;SDS011;11649;48.090;9.754;2023-07-30T10:47:00;1.90;;;1.50;;
22965;SDS011;11649;48.090;9.754;2023-07-30T10:49:28;2.30;;;1.45;;
22965;SDS011;11649;48.090;9.754;2023-07-30T10:52:01;1.60;;;1.40;;
22965;SDS011;11649;48.090;9.754;2023-07-30T10:54:32;1.63;;;1.40;;
22965;SDS011;11649;48.090;9.754;2023-07-30T10:57:00;2.15;;;1.70;;
22965;SDS011;11649;48.090;9.754;2023-07-30T10:59:37;3.00;;;1.80;;
22965;SDS011;11649;48.090;9.754;2023-07-30T11:02:05;1.98;;;1.77;;
22965;SDS011;11649;48.090;9.754;2023-07-30T11:04:35;3.20;;;1.70;;
22965;SDS011;11649;48.090;9.754;2023-07-30T11:07:02;5.95;;;2.03;;
22965;SDS011;11649;48.090;9.754;2023-07-30T11:09:30;3.20;;;1.60;;
22965;SDS011;11649;48.090;9.754;2023-07-30T11:11:57;2.45;;;1.35;;
22965;SDS011;11649;48.090;9.754;2023-07-30T11:14:24;2.45;;;1.60;;
22965;SDS011;11649;48.090;9.754;2023-07-30T11:16:58;1.60;;;1.50;;
22965;SDS011;11649;48.090;9.754;2023-07-30T11:19:26;3.25;;;1.90;;
22965;SDS011;11649;48.090;9.754;2023-07-30T11:21:54;3.55;;;1.52;;
22965;SDS011;11649;48.090;9.754;2023-07-30T11:24:32;2.58;;;1.40;;
22965;SDS011;11649;48.090;9.754;2023-07-30T11:27:00;3.25;;;1.33;;
22965;SDS011;11649;48.090;9.754;2023-07-30T11:29:28;7.28;;;1.52;;
22965;SDS011;11649;48.090;9.754;2023-07-30T11:31:58;3.08;;;1.48;;
22965;SDS011;11649;48.090;9.754;2023-07-30T11:34:26;1.77;;;1.58;;
22965;SDS011;11649;48.090;9.754;2023-07-30T11:36:54;2.95;;;1.30;;
22965;SDS011;11649;48.090;9.754;2023-07-30T11:39:22;1.92;;;1.45;;
22965;SDS011;11649;48.090;9.754;2023-07-30T11:41:50;2.58;;;1.52;;
22965;SDS011;11649;48.090;9.754;2023-07-30T11:44:30;4.47;;;1.50;;
22965;SDS011;11649;48.090;9.754;2023-07-30T11:46:58;1.98;;;1.50;;
22965;SDS011;11649;48.090;9.754;2023-07-30T11:49:24;2.05;;;1.48;;
22965;SDS011;11649;48.090;9.754;2023-07-30T11:52:03;1.65;;;1.40;;
22965;SDS011;11649;48.090;9.754;2023-07-30T11:54:34;1.40;;;1.30;;
22965;SDS011;11649;48.090;9.754;2023-07-30T11:57:01;1.77;;;1.65;;
22965;SDS011;11649;48.090;9.754;2023-07-30T11:59:30;1.60;;;1.50;;
22965;SDS011;11649;48.090;9.754;2023-07-30T12:01:57;3.20;;;1.45;;
22965;SDS011;11649;48.090;9.754;2023-07-30T12:04:24;1.48;;;1.35;;
22965;SDS011;11649;48.090;9.754;2023-07-30T12:06:52;2.80;;;1.40;;
22965;SDS011;11649;48.090;9.754;2023-07-30T12:09:23;3.03;;;1.60;;
22965;SDS011;11649;48.090;9.754;2023-07-30T12:11:59;1.60;;;1.45;;
22965;SDS011;11649;48.090;9.754;2023-07-30T12:16:59;1.60;;;1.42;;
22965;SDS011;11649;48.090;9.754;2023-07-30T12:19:26;1.65;;;1.30;;
22965;SDS011;11649;48.090;9.754;2023-07-30T12:21:53;1.50;;;1.30;;
22965;SDS011;11649;48.090;9.754;2023-07-30T12:24:20;1.95;;;1.50;;
22965;SDS011;11649;48.090;9.754;2023-07-30T12:26:48;3.42;;;1.50;;
22965;SDS011;11649;48.090;9.754;2023-07-30T12:29:18;3.05;;;1.60;;
22965;SDS011;11649;48.090;9.754;2023-07-30T12:31:45;4.40;;;1.45;;
22965;SDS011;11649;48.090;9.754;2023-07-30T12:34:13;1.77;;;1.50;;
22965;SDS011;11649;48.090;9.754;2023-07-30T12:36:41;1.77;;;1.65;;
22965;SDS011;11649;48.090;9.754;2023-07-30T12:39:07;3.22;;;1.70;;
22965;SDS011;11649;48.090;9.754;2023-07-30T12:41:34;2.72;;;1.80;;
22965;SDS011;11649;48.090;9.754;2023-07-30T12:44:02;3.67;;;1.65;;
22965;SDS011;11649;48.090;9.754;2023-07-30T12:46:31;1.73;;;1.60;;
22965;SDS011;11649;48.090;9.754;2023-07-30T12:48:59;2.10;;;1.70;;
22965;SDS011;11649;48.090;9.754;2023-07-30T12:51:31;3.30;;;1.55;;
22965;SDS011;11649;48.090;9.754;2023-07-30T12:53:59;2.47;;;1.73;;
22965;SDS011;11649;48.090;9.754;2023-07-30T12:56:26;3.78;;;1.80;;
22965;SDS011;11649;48.090;9.754;2023-07-30T12:59:05;8.80;;;1.80;;
22965;SDS011;11649;48.090;9.754;2023-07-30T13:01:32;3.15;;;1.80;;
22965;SDS011;11649;48.090;9.754;2023-07-30T13:03:59;2.00;;;1.80;;
22965;SDS011;11649;48.090;9.754;2023-07-30T13:06:26;2.38;;;1.60;;
22965;SDS011;11649;48.090;9.754;2023-07-30T13:08:53;1.55;;;1.45;;
22965;SDS011;11649;48.090;9.754;2023-07-30T13:11:20;2.50;;;1.60;;
22965;SDS011;11649;48.090;9.754;2023-07-30T13:13:46;1.85;;;1.63;;
22965;SDS011;11649;48.090;9.754;2023-07-30T13:16:13;2.50;;;1.50;;
22965;SDS011;11649;48.090;9.754;2023-07-30T13:18:40;1.73;;;1.50;;
22965;SDS011;11649;48.090;9.754;2023-07-30T13:21:07;2.03;;;1.30;;
22965;SDS011;11649;48.090;9.754;2023-07-30T13:23:33;1.60;;;1.50;;
22965;SDS011;11649;48.090;9.754;2023-07-30T13:26:00;2.08;;;1.77;;
22965;SDS011;11649;48.090;9.754;2023-07-30T13:28:29;1.92;;;1.52;;
22965;SDS011;11649;48.090;9.754;2023-07-30T13:30:56;1.73;;;1.50;;
22965;SDS011;11649;48.090;9.754;2023-07-30T13:33:23;1.73;;;1.33;;
22965;SDS011;11649;48.090;9.754;2023-07-30T13:35:50;1.55;;;1.40;;
22965;SDS011;11649;48.090;9.754;2023-07-30T13:38:17;3.58;;;1.80;;
22965;SDS011;11649;48.090;9.754;2023-07-30T13:40:43;3.38;;;1.48;;
22965;SDS011;11649;48.090;9.754;2023-07-30T13:43:11;2.40;;;1.63;;
22965;SDS011;11649;48.090;9.754;2023-07-30T13:45:37;2.05;;;1.42;;
22965;SDS011;11649;48.090;9.754;2023-07-30T13:48:04;2.20;;;1.70;;
22965;SDS011;11649;48.090;9.754;2023-07-30T13:50:31;2.50;;;1.52;;
22965;SDS011;11649;48.090;9.754;2023-07-30T13:52:58;2.60;;;1.50;;
22965;SDS011;11649;48.090;9.754;2023-07-30T13:55:24;1.77;;;1.50;;
22965;SDS011;11649;48.090;9.754;2023-07-30T13:57:51;2.40;;;1.65;;
22965;SDS011;11649;48.090;9.754;2023-07-30T14:00:18;3.05;;;1.63;;
22965;SDS011;11649;48.090;9.754;2023-07-30T14:02:51;3.83;;;1.80;;
22965;SDS011;11649;48.090;9.754;2023-07-30T14:05:18;1.70;;;1.60;;
22965;SDS011;11649;48.090;9.754;2023-07-30T14:07:45;1.58;;;1.40;;
22965;SDS011;11649;48.090;9.754;2023-07-30T14:10:11;1.73;;;1.42;;
22965;SDS011;11649;48.090;9.754;2023-07-30T14:12:38;2.00;;;1.70;;
22965;SDS011;11649;48.090;9.754;2023-07-30T14:15:05;2.20;;;1.63;;
22965;SDS011;11649;48.090;9.754;2023-07-30T14:17:32;3.88;;;1.88;;
22965;SDS011;11649;48.090;9.754;2023-07-30T14:19:59;2.60;;;1.70;;
22965;SDS011;11649;48.090;9.754;2023-07-30T14:22:26;2.22;;;1.60;;
22965;SDS011;11649;48.090;9.754;2023-07-30T14:24:52;3.17;;;1.50;;
22965;SDS011;11649;48.090;9.754;2023-07-30T14:27:19;1.80;;;1.52;;
22965;SDS011;11649;48.090;9.754;2023-07-30T14:29:46;2.08;;;1.80;;
22965;SDS011;11649;48.090;9.754;2023-07-30T14:32:13;3.30;;;1.50;;
22965;SDS011;11649;48.090;9.754;2023-07-30T14:34:40;5.03;;;1.90;;
22965;SDS011;11649;48.090;9.754;2023-07-30T14:37:06;1.90;;;1.65;;
22965;SDS011;11649;48.090;9.754;2023-07-30T14:39:35;2.38;;;1.70;;
22965;SDS011;11649;48.090;9.754;2023-07-30T14:42:02;2.20;;;1.77;;
22965;SDS011;11649;48.090;9.754;2023-07-30T14:44:29;3.08;;;1.70;;
22965;SDS011;11649;48.090;9.754;2023-07-30T14:46:56;1.90;;;1.70;;
22965;SDS011;11649;48.090;9.754;2023-07-30T14:52:19;2.08;;;1.67;;
22965;SDS011;11649;48.090;9.754;2023-07-30T14:54:46;2.03;;;1.60;;
22965;SDS011;11649;48.090;9.754;2023-07-30T14:57:12;1.73;;;1.63;;
22965;SDS011;11649;48.090;9.754;2023-07-30T14:59:39;1.92;;;1.80;;
22965;SDS011;11649;48.090;9.754;2023-07-30T15:02:06;2.03;;;1.63;;
22965;SDS011;11649;48.090;9.754;2023-07-30T15:04:33;2.22;;;1.52;;
22965;SDS011;11649;48.090;9.754;2023-07-30T15:07:00;2.05;;;1.65;;
22965;SDS011;11649;48.090;9.754;2023-07-30T15:09:27;2.22;;;1.70;;
22965;SDS011;11649;48.090;9.754;2023-07-30T15:14:47;1.75;;;1.50;;
22965;SDS011;11649;48.090;9.754;2023-07-30T15:17:15;2.53;;;1.75;;
22965;SDS011;11649;48.090;9.754;2023-07-30T15:19:42;4.07;;;1.70;;
22965;SDS011;11649;48.090;9.754;2023-07-30T15:22:12;2.95;;;1.95;;
22965;SDS011;11649;48.090;9.754;2023-07-30T15:24:39;2.00;;;1.80;;
22965;SDS011;11649;48.090;9.754;2023-07-30T15:27:07;2.50;;;1.73;;
22965;SDS011;11649;48.090;9.754;2023-07-30T15:29:34;3.38;;;1.98;;
22965;SDS011;11649;48.090;9.754;2023-07-30T15:32:01;2.97;;;1.90;;
22965;SDS011;11649;48.090;9.754;2023-07-30T15:34:28;2.35;;;1.73;;
22965;SDS011;11649;48.090;9.754;2023-07-30T15:36:55;4.40;;;1.80;;
22965;SDS011;11649;48.090;9.754;2023-07-30T15:39:22;2.78;;;1.80;;
22965;SDS011;11649;48.090;9.754;2023-07-30T15:41:49;2.17;;;1.73;;
22965;SDS011;11649;48.090;9.754;2023-07-30T15:44:16;2.95;;;1.90;;
22965;SDS011;11649;48.090;9.754;2023-07-30T15:46:46;2.45;;;1.92;;
22965;SDS011;11649;48.090;9.754;2023-07-30T15:49:13;3.13;;;1.92;;
22965;SDS011;11649;48.090;9.754;2023-07-30T15:51:40;2.72;;;1.92;;
22965;SDS011;11649;48.090;9.754;2023-07-30T15:54:07;2.90;;;1.98;;
22965;SDS011;11649;48.090;9.754;2023-07-30T15:56:34;2.55;;;1.90;;